Time;durP1;ratioP1;P1;durP2;ratioP2;P2;SDS_P1;SDS_P2;PMS_P1;PMS_P2;Temp;Humidity;BMP_temperature;BMP_pressure;BME280_temperature;BME280_humidity;BME280_pressure;Samples;Min_cycle;Max_cycle;Signal;HPM_P1;HPM_P2
2022/07/27 00:00:24;;;;;;;4.25;1.30;;;12.60;87.20;;;;;;5053729;28;20471;-27
2022/07/27 00:02:51;;;;;;;6.38;1.52;;;12.60;89.60;;;;;;5054902;28;20517;-27
2022/07/27 00:05:19;;;;;;;6.45;1.73;;;12.60;93.50;;;;;;5036443;28;20115;-27
2022/07/27 00:07:45;;;;;;;5.32;1.38;;;12.60;87.10;;;;;;5057523;28;20053;-27
2022/07/27 00:10:11;;;;;;;9.55;1.90;;;12.60;70.10;;;;;;5055789;28;20049;-28
2022/07/27 00:12:36;;;;;;;5.05;1.55;;;12.60;93.30;;;;;;5054817;28;20106;-27
2022/07/27 00:15:03;;;;;;;7.22;1.80;;;12.50;88.50;;;;;;5053877;28;20085;-27
2022/07/27 00:17:29;;;;;;;7.15;1.65;;;12.50;73.40;;;;;;5053590;28;20056;-27
2022/07/27 00:19:55;;;;;;;10.55;2.35;;;12.40;98.90;;;;;;5054871;28;20041;-27
2022/07/27 00:22:21;;;;;;;8.63;2.08;;;12.40;83.10;;;;;;5039032;28;20045;-27
2022/07/27 00:24:48;;;;;;;6.38;1.90;;;12.20;40.30;;;;;;5054115;28;20052;-27
2022/07/27 00:27:14;;;;;;;13.68;2.58;;;12.00;60.80;;;;;;5054672;28;20045;-27
2022/07/27 00:29:40;;;;;;;6.55;1.80;;;11.80;44.60;;;;;;5054201;28;20513;-26
2022/07/27 00:32:06;;;;;;;9.85;1.85;;;11.70;99.90;;;;;;5052644;28;20048;-27
2022/07/27 00:34:32;;;;;;;9.05;2.30;;;11.50;99.90;;;;;;5054568;28;20545;-27
2022/07/27 00:36:58;;;;;;;5.90;2.10;;;11.40;99.90;;;;;;5053544;28;20045;-26
2022/07/27 00:39:24;;;;;;;11.60;2.65;;;11.30;99.90;;;;;;5036469;28;20390;-27
2022/07/27 00:41:50;;;;;;;4.90;2.10;;;11.30;99.90;;;;;;5054048;28;20132;-27
2022/07/27 00:44:28;;;;;;;5.53;2.10;;;11.30;99.90;;;;;;5052888;28;20053;-27
2022/07/27 00:46:55;;;;;;;6.32;2.28;;;11.30;99.90;;;;;;5052536;28;20049;-27
2022/07/27 00:49:21;;;;;;;9.35;1.77;;;11.30;99.90;;;;;;5055101;28;20049;-26
2022/07/27 00:51:48;;;;;;;4.07;1.63;;;11.60;1.00;;;;;;5057883;28;20049;-27
2022/07/27 00:54:15;;;;;;;5.00;1.70;;;11.80;42.80;;;;;;5054046;28;20089;-27
2022/07/27 00:56:41;;;;;;;6.80;1.60;;;12.00;59.70;;;;;;5054128;28;20041;-26
2022/07/27 00:59:09;;;;;;;9.40;1.88;;;12.10;1.00;;;;;;5054882;28;20088;-27
2022/07/27 01:01:34;;;;;;;10.82;1.50;;;12.10;1.00;;;;;;5054770;28;20045;-27
2022/07/27 01:04:00;;;;;;;8.02;1.65;;;12.20;1.00;;;;;;5054479;28;20124;-27
2022/07/27 01:06:27;;;;;;;7.28;2.00;;;12.30;99.90;;;;;;5054542;28;20180;-27
2022/07/27 01:09:55;;;;;;;6.97;2.65;;;12.30;99.90;;;;;;5057631;28;20036;-27
2022/07/27 01:11:39;;;;;;;5.68;1.48;;;12.40;99.90;;;;;;5046035;28;20056;-27
2022/07/27 01:14:06;;;;;;;7.45;1.80;;;12.40;99.90;;;;;;5053939;28;20145;-27
2022/07/27 01:16:32;;;;;;;9.57;1.70;;;12.40;99.90;;;;;;5053778;28;20047;-27
2022/07/27 01:18:58;;;;;;;9.02;1.95;;;12.40;99.90;;;;;;5035090;28;20041;-27
2022/07/27 01:21:23;;;;;;;8.18;1.30;;;12.40;99.90;;;;;;5034772;28;20061;-27
2022/07/27 01:23:49;;;;;;;7.35;1.63;;;12.40;99.90;;;;;;5039146;28;20045;-27
2022/07/27 01:26:15;;;;;;;7.50;1.92;;;12.30;99.90;;;;;;5052350;28;20127;-27
2022/07/27 01:28:45;;;;;;;5.63;1.85;;;12.30;99.90;;;;;;5053785;28;20139;-26
2022/07/27 01:31:10;;;;;;;7.05;2.10;;;12.10;99.90;;;;;;5053679;28;20126;-27
2022/07/27 01:33:36;;;;;;;7.03;1.90;;;12.00;99.90;;;;;;5053478;28;20143;-28
2022/07/27 01:36:02;;;;;;;10.48;3.03;;;11.90;99.90;;;;;;5053495;28;20111;-27
2022/07/27 01:38:28;;;;;;;8.82;2.08;;;11.80;99.90;;;;;;5051518;28;20045;-27
2022/07/27 01:40:54;;;;;;;5.88;2.30;;;11.70;99.90;;;;;;5053218;28;20389;-27
2022/07/27 01:43:20;;;;;;;11.52;2.60;;;11.60;99.90;;;;;;5052195;28;20090;-27
2022/07/27 01:45:47;;;;;;;7.38;2.17;;;11.60;99.90;;;;;;5051972;28;20102;-26
2022/07/27 01:48:13;;;;;;;10.88;2.97;;;11.50;99.90;;;;;;5053428;28;20049;-26
2022/07/27 01:50:39;;;;;;;7.40;2.20;;;11.50;99.90;;;;;;5053344;28;20116;-27
2022/07/27 01:53:05;;;;;;;9.65;2.45;;;11.50;99.90;;;;;;5052416;28;20577;-26
2022/07/27 01:55:30;;;;;;;6.88;2.20;;;11.40;99.90;;;;;;5052766;28;20119;-27
2022/07/27 01:57:56;;;;;;;9.75;2.40;;;11.40;99.90;;;;;;5052383;28;20076;-27
2022/07/27 02:00:22;;;;;;;11.70;2.95;;;11.30;99.90;;;;;;5053403;28;20460;-27
2022/07/27 02:02:48;;;;;;;13.63;3.17;;;11.40;99.90;;;;;;5054048;28;20079;-27
2022/07/27 02:05:13;;;;;;;11.90;2.40;;;11.40;99.90;;;;;;5052296;28;20045;-26
2022/07/27 02:07:40;;;;;;;8.50;2.63;;;11.30;99.90;;;;;;5050764;28;20053;-27
2022/07/27 02:10:07;;;;;;;8.25;2.60;;;11.30;99.90;;;;;;5056439;28;20049;-27
2022/07/27 02:12:35;;;;;;;4.70;2.70;;;11.30;99.90;;;;;;5052529;28;20056;-27
2022/07/27 02:15:09;;;;;;;9.68;2.72;;;11.40;99.90;;;;;;5051793;28;20395;-26
2022/07/27 02:17:36;;;;;;;8.57;2.30;;;11.40;99.90;;;;;;5053090;28;20046;-27
2022/07/27 02:20:04;;;;;;;8.98;3.03;;;11.50;99.90;;;;;;5052146;28;20072;-26
2022/07/27 02:22:30;;;;;;;5.35;2.28;;;11.60;1.00;;;;;;5053538;28;20045;-28
2022/07/27 02:24:56;;;;;;;8.43;2.10;;;11.70;1.00;;;;;;5053100;28;20123;-27
2022/07/27 02:27:22;;;;;;;12.15;2.75;;;11.60;1.00;;;;;;5051380;28;20076;-27
2022/07/27 02:29:48;;;;;;;11.57;3.00;;;11.60;1.00;;;;;;5051953;28;20041;-27
2022/07/27 02:32:14;;;;;;;8.20;2.83;;;11.70;1.00;;;;;;5055617;28;20041;-26
2022/07/27 02:34:40;;;;;;;10.15;3.15;;;11.80;1.00;;;;;;5053410;28;20056;-27
2022/07/27 02:37:05;;;;;;;8.57;2.45;;;11.80;1.00;;;;;;5053296;28;20359;-27
2022/07/27 02:39:31;;;;;;;9.00;2.90;;;11.90;1.00;;;;;;5052113;28;20041;-27
2022/07/27 02:41:57;;;;;;;5.22;2.33;;;11.90;1.00;;;;;;5053378;28;20132;-26
2022/07/27 02:44:22;;;;;;;6.88;2.22;;;11.90;1.00;;;;;;5053523;28;20052;-27
2022/07/27 02:46:48;;;;;;;8.18;2.58;;;12.00;1.00;;;;;;5050964;28;20506;-27
2022/07/27 02:49:14;;;;;;;7.32;2.47;;;12.00;1.00;;;;;;5051515;28;20052;-27
2022/07/27 02:51:40;;;;;;;6.90;2.60;;;12.10;1.00;;;;;;5033366;28;20037;-27
2022/07/27 02:54:06;;;;;;;7.63;2.20;;;12.20;1.00;;;;;;5044350;28;20056;-27
2022/07/27 02:56:32;;;;;;;10.95;3.13;;;12.20;1.00;;;;;;5052569;28;20051;-28
2022/07/27 02:58:57;;;;;;;8.80;2.83;;;12.20;1.00;;;;;;5053208;28;20087;-27
2022/07/27 03:01:23;;;;;;;9.88;2.38;;;12.30;1.00;;;;;;5053048;28;20041;-27
2022/07/27 03:03:49;;;;;;;8.88;2.83;;;12.30;99.90;;;;;;5053347;28;20554;-27
2022/07/27 03:06:14;;;;;;;6.95;2.30;;;12.30;99.90;;;;;;5051015;28;20124;-27
2022/07/27 03:08:40;;;;;;;10.38;2.75;;;12.30;99.90;;;;;;5051920;28;20132;-26
2022/07/27 03:11:07;;;;;;;7.75;2.35;;;12.30;99.90;;;;;;5055904;28;20033;-27
2022/07/27 03:13:33;;;;;;;8.35;2.35;;;12.30;99.90;;;;;;5053081;28;20103;-27
2022/07/27 03:15:58;;;;;;;7.57;2.00;;;12.30;99.90;;;;;;5053215;28;20042;-27
2022/07/27 03:18:24;;;;;;;9.20;2.60;;;12.20;99.90;;;;;;5050886;28;20044;-27
2022/07/27 03:20:50;;;;;;;7.30;1.95;;;12.20;99.90;;;;;;5052271;28;20044;-27
2022/07/27 03:23:19;;;;;;;12.63;2.17;;;12.30;99.90;;;;;;5050317;28;20101;-27
2022/07/27 03:25:45;;;;;;;4.38;2.13;;;12.30;75.80;;;;;;5053202;28;20124;-27
2022/07/27 03:28:10;;;;;;;8.00;2.47;;;12.30;53.80;;;;;;5051379;28;20098;-27
2022/07/27 03:30:36;;;;;;;8.13;2.30;;;12.20;19.10;;;;;;5051142;28;20033;-27
2022/07/27 03:33:02;;;;;;;7.05;2.10;;;12.20;33.10;;;;;;5052164;28;20049;-27
2022/07/27 03:35:28;;;;;;;9.80;2.13;;;12.10;8.10;;;;;;5053814;28;20082;-27
2022/07/27 03:37:53;;;;;;;5.00;2.08;;;12.10;29.90;;;;;;5054731;28;20119;-27
2022/07/27 03:40:19;;;;;;;6.18;2.42;;;12.00;26.80;;;;;;5055264;28;20041;-27
2022/07/27 03:42:45;;;;;;;6.97;2.50;;;12.00;60.20;;;;;;5054597;28;20044;-28
2022/07/27 03:45:11;;;;;;;8.38;2.38;;;11.90;85.00;;;;;;5055579;28;20059;-27
2022/07/27 03:47:36;;;;;;;11.38;2.58;;;11.90;99.90;;;;;;5054357;28;20125;-27
2022/07/27 03:50:03;;;;;;;7.25;2.17;;;11.90;99.90;;;;;;5054933;28;20036;-27
2022/07/27 03:52:28;;;;;;;12.70;2.78;;;11.90;99.90;;;;;;5055676;28;20411;-27
2022/07/27 03:54:56;;;;;;;11.23;2.85;;;11.90;99.90;;;;;;5056123;28;20056;-27
2022/07/27 03:57:22;;;;;;;9.57;2.65;;;11.80;99.90;;;;;;5055169;28;20095;-27
2022/07/27 03:59:48;;;;;;;7.80;2.63;;;11.80;99.90;;;;;;5056458;28;20376;-27
2022/07/27 04:02:14;;;;;;;9.07;3.15;;;11.80;99.90;;;;;;5054439;28;20052;-27
2022/07/27 04:04:40;;;;;;;8.68;2.67;;;11.80;99.90;;;;;;5054689;28;20045;-28
2022/07/27 04:07:06;;;;;;;12.98;2.67;;;11.80;99.90;;;;;;5053533;28;20102;-28
2022/07/27 04:09:33;;;;;;;11.52;3.88;;;11.80;99.90;;;;;;5059245;28;20506;-27
2022/07/27 04:11:59;;;;;;;7.75;3.00;;;11.80;99.90;;;;;;5055129;28;20049;-27
2022/07/27 04:14:24;;;;;;;12.20;2.80;;;11.70;99.90;;;;;;5055055;28;20053;-26
2022/07/27 04:16:50;;;;;;;13.63;3.30;;;11.70;99.90;;;;;;5053874;28;20051;-27
2022/07/27 04:19:16;;;;;;;11.40;3.25;;;11.60;99.90;;;;;;5054494;28;20139;-27
2022/07/27 04:21:42;;;;;;;9.18;2.40;;;11.60;99.90;;;;;;5054799;28;20474;-27
2022/07/27 04:24:08;;;;;;;8.10;2.58;;;11.60;99.90;;;;;;5052200;28;20128;-27
2022/07/27 04:26:33;;;;;;;8.13;2.92;;;11.60;99.90;;;;;;5055574;28;20080;-28
2022/07/27 04:28:59;;;;;;;11.40;3.00;;;11.70;99.90;;;;;;5056184;28;20504;-27
2022/07/27 04:31:25;;;;;;;10.00;3.30;;;11.80;1.00;;;;;;5054716;28;20041;-26
2022/07/27 04:33:51;;;;;;;7.72;3.22;;;11.90;1.00;;;;;;5054369;28;20049;-26
2022/07/27 04:36:16;;;;;;;13.25;4.45;;;12.00;1.00;;;;;;5054401;28;20052;-25
2022/07/27 04:38:42;;;;;;;11.25;3.58;;;12.10;93.80;;;;;;5053944;28;20045;-25
2022/07/27 04:41:08;;;;;;;7.55;2.92;;;12.20;99.90;;;;;;5054449;28;20037;-24
2022/07/27 04:43:34;;;;;;;9.52;2.30;;;12.40;99.90;;;;;;5054929;28;20079;-24
2022/07/27 04:46:03;;;;;;;8.23;2.42;;;12.50;99.90;;;;;;5054472;28;20045;-24
2022/07/27 04:48:32;;;;;;;7.47;1.75;;;12.60;99.90;;;;;;5055442;28;20052;-23
2022/07/27 04:50:58;;;;;;;8.93;2.88;;;12.70;99.90;;;;;;5054948;28;20403;-23
2022/07/27 04:53:24;;;;;;;6.95;1.55;;;12.60;99.90;;;;;;5054527;28;20041;-23
2022/07/27 04:55:50;;;;;;;8.52;1.75;;;12.60;99.90;;;;;;5054258;28;20123;-22
2022/07/27 04:58:16;;;;;;;6.10;2.05;;;12.60;99.90;;;;;;5053915;28;20115;-24
2022/07/27 05:00:44;;;;;;;4.90;1.67;;;12.70;99.90;;;;;;5054663;28;20045;-25
2022/07/27 05:03:10;;;;;;;6.28;2.28;;;12.70;99.90;;;;;;5054552;28;20041;-26
2022/07/27 05:05:36;;;;;;;11.93;2.88;;;12.80;99.90;;;;;;5036609;28;20048;-27
2022/07/27 05:08:03;;;;;;;9.38;3.50;;;12.90;99.90;;;;;;5054310;28;20060;-26
2022/07/27 05:10:29;;;;;;;10.93;2.22;;;12.90;99.90;;;;;;5056605;28;20044;-26
2022/07/27 05:12:54;;;;;;;18.45;2.20;;;13.00;99.90;;;;;;5055041;28;20056;-26
2022/07/27 05:15:20;;;;;;;10.50;1.80;;;13.00;1.00;;;;;;5055110;28;20044;-26
2022/07/27 05:17:47;;;;;;;11.20;2.03;;;13.10;1.00;;;;;;5053944;28;20094;-26
2022/07/27 05:20:13;;;;;;;11.57;3.05;;;13.10;99.90;;;;;;5054696;28;20045;-26
2022/07/27 05:22:39;;;;;;;8.63;2.45;;;13.20;99.90;;;;;;5054364;28;20053;-27
2022/07/27 05:25:06;;;;;;;7.95;2.45;;;13.20;99.90;;;;;;5052535;28;20067;-27
2022/07/27 05:27:31;;;;;;;7.32;2.28;;;13.20;99.90;;;;;;5052766;28;20055;-26
2022/07/27 05:29:57;;;;;;;8.27;2.10;;;13.30;99.90;;;;;;5052782;28;20049;-26
2022/07/27 05:32:24;;;;;;;8.27;1.77;;;13.30;99.90;;;;;;5053223;28;20048;-26
2022/07/27 05:34:50;;;;;;;4.97;1.77;;;13.40;99.90;;;;;;5052741;28;20049;-26
2022/07/27 05:37:15;;;;;;;7.43;1.40;;;13.50;99.90;;;;;;5053030;28;20051;-26
2022/07/27 05:39:41;;;;;;;9.85;2.03;;;13.50;99.90;;;;;;5053307;28;20041;-26
2022/07/27 05:42:08;;;;;;;14.68;2.63;;;13.60;99.90;;;;;;5054150;28;20064;-27
2022/07/27 05:44:34;;;;;;;10.70;1.73;;;13.60;99.90;;;;;;5052295;28;20049;-27
2022/07/27 05:47:00;;;;;;;5.57;1.63;;;13.70;99.90;;;;;;5053612;28;20375;-27
2022/07/27 05:49:25;;;;;;;6.20;1.98;;;13.80;99.90;;;;;;5052496;28;20041;-27
2022/07/27 05:51:51;;;;;;;6.90;1.40;;;13.90;99.90;;;;;;5053949;28;20051;-27
2022/07/27 05:54:18;;;;;;;7.75;2.30;;;14.00;99.90;;;;;;5053285;28;20055;-26
2022/07/27 05:56:44;;;;;;;10.10;1.60;;;14.10;99.90;;;;;;5052897;28;20075;-27
2022/07/27 05:59:10;;;;;;;10.85;1.98;;;14.30;99.90;;;;;;5053275;28;20072;-27
2022/07/27 06:01:37;;;;;;;6.95;1.25;;;15.00;99.90;;;;;;5053373;28;20399;-26
2022/07/27 06:04:03;;;;;;;6.13;1.77;;;15.30;1.00;;;;;;5053271;28;20045;-26
2022/07/27 06:09:15;;;;;;;13.13;2.15;;;16.20;99.90;;;;;;5042797;28;20083;-26
2022/07/27 06:11:42;;;;;;;10.68;1.25;;;17.20;47.80;;;;;;5054560;28;20037;-27
2022/07/27 06:14:08;;;;;;;7.30;1.42;;;17.80;99.90;;;;;;5053467;28;20053;-27
2022/07/27 06:16:34;;;;;;;7.53;1.75;;;18.10;99.90;;;;;;5053508;28;20045;-26
2022/07/27 06:19:00;;;;;;;5.70;0.90;;;18.30;1.00;;;;;;5053660;28;20091;-27
2022/07/27 06:21:27;;;;;;;6.90;1.20;;;18.70;1.00;;;;;;5051976;28;20423;-26
2022/07/27 06:23:56;;;;;;;7.45;0.95;;;18.60;1.00;;;;;;5052677;28;20045;-27
2022/07/27 06:26:22;;;;;;;8.68;1.00;;;18.80;99.90;;;;;;5049985;28;20513;-27
2022/07/27 06:28:48;;;;;;;8.18;1.20;;;19.10;99.90;;;;;;5052915;28;20406;-27
2022/07/27 06:31:14;;;;;;;8.98;1.35;;;18.70;99.90;;;;;;5052233;28;20052;-26
2022/07/27 06:33:40;;;;;;;3.33;1.00;;;17.60;99.90;;;;;;5050750;28;20052;-27
2022/07/27 06:36:07;;;;;;;9.65;1.08;;;16.90;1.00;;;;;;5052490;28;20049;-27
2022/07/27 06:38:33;;;;;;;7.90;1.52;;;16.90;92.00;;;;;;5052759;28;20052;-26
2022/07/27 06:41:00;;;;;;;8.52;1.60;;;17.20;1.00;;;;;;5052612;28;20044;-27
2022/07/27 06:43:31;;;;;;;4.40;1.40;;;17.60;1.00;;;;;;5050798;28;20077;-26
2022/07/27 06:45:59;;;;;;;5.55;1.23;;;17.70;1.00;;;;;;5047508;28;20068;-26
2022/07/27 06:48:26;;;;;;;8.40;1.70;;;17.90;1.00;;;;;;5040525;28;20132;-26
2022/07/27 06:50:52;;;;;;;8.02;1.00;;;18.10;1.00;;;;;;5043026;28;20041;-26
2022/07/27 06:53:18;;;;;;;8.23;1.15;;;18.10;99.90;;;;;;5054703;28;20048;-27
2022/07/27 06:55:44;;;;;;;8.93;1.63;;;18.20;99.90;;;;;;5053293;28;20090;-26
2022/07/27 06:58:11;;;;;;;7.95;1.20;;;18.00;99.90;;;;;;5052256;28;20037;-27
2022/07/27 07:00:38;;;;;;;13.80;1.50;;;18.40;99.90;;;;;;5053698;28;20048;-26
2022/07/27 07:03:05;;;;;;;7.10;1.52;;;18.30;99.90;;;;;;5052845;28;20406;-27
2022/07/27 07:05:33;;;;;;;4.85;1.00;;;17.80;99.90;;;;;;5053182;28;20055;-28
2022/07/27 07:08:00;;;;;;;5.80;1.05;;;17.30;1.00;;;;;;5052599;28;20057;-27
2022/07/27 07:10:26;;;;;;;6.22;1.00;;;17.00;1.00;;;;;;5053735;28;20037;-27
2022/07/27 07:12:56;;;;;;;4.72;1.02;;;17.50;1.00;;;;;;5056997;28;20041;-28
2022/07/27 07:15:23;;;;;;;7.22;1.65;;;17.60;99.90;;;;;;5056140;28;20040;-27
2022/07/27 07:17:53;;;;;;;9.65;0.90;;;17.30;99.90;;;;;;5056841;28;20041;-27
2022/07/27 07:20:18;;;;;;;7.57;1.42;;;17.00;1.00;;;;;;5057302;28;20128;-27
2022/07/27 07:22:44;;;;;;;7.20;1.27;;;16.60;99.90;;;;;;5056768;28;20087;-27
2022/07/27 07:25:10;;;;;;;4.82;1.10;;;15.90;99.90;;;;;;5056658;28;20048;-28
2022/07/27 07:27:36;;;;;;;5.28;0.90;;;15.50;99.90;;;;;;5054493;28;20051;-27
2022/07/27 07:30:03;;;;;;;5.80;1.10;;;15.20;99.90;;;;;;5057196;28;20076;-27
2022/07/27 07:32:29;;;;;;;7.05;1.27;;;15.00;1.00;;;;;;5057113;28;20115;-27
2022/07/27 07:34:55;;;;;;;7.80;1.60;;;14.70;1.00;;;;;;5057336;28;20383;-26
2022/07/27 07:37:20;;;;;;;11.57;1.90;;;14.30;99.90;;;;;;5054284;28;20126;-24
2022/07/27 07:39:46;;;;;;;10.75;2.22;;;14.10;99.90;;;;;;5065072;28;20041;-24
2022/07/27 07:42:13;;;;;;;9.60;2.53;;;14.00;99.90;;;;;;5070877;28;20052;-24
2022/07/27 07:44:39;;;;;;;7.15;1.63;;;13.90;99.90;;;;;;5058035;28;20055;-24
2022/07/27 07:47:05;;;;;;;6.45;1.73;;;13.90;1.00;;;;;;5055907;28;20132;-24
2022/07/27 07:49:31;;;;;;;9.80;1.65;;;14.00;1.00;;;;;;5055146;28;20048;-25
2022/07/27 07:51:57;;;;;;;10.80;2.53;;;14.10;1.00;;;;;;5055852;28;20183;-25
2022/07/27 07:54:22;;;;;;;7.00;2.20;;;14.20;1.00;;;;;;5056018;28;20053;-26
2022/07/27 07:56:48;;;;;;;8.40;1.50;;;14.40;1.00;;;;;;5056095;28;20167;-26
2022/07/27 07:59:14;;;;;;;6.35;1.63;;;14.60;1.00;;;;;;5056325;28;20041;-26
2022/07/27 08:01:40;;;;;;;7.15;1.50;;;14.90;1.00;;;;;;5055580;28;20437;-26
2022/07/27 08:04:05;;;;;;;9.02;1.98;;;15.20;1.00;;;;;;5054705;28;20134;-26
2022/07/27 08:06:31;;;;;;;7.97;1.45;;;15.50;99.90;;;;;;5053861;28;20135;-26
2022/07/27 08:08:57;;;;;;;6.30;0.90;;;15.70;99.90;;;;;;5054918;28;20052;-26
2022/07/27 08:11:23;;;;;;;6.22;1.15;;;15.80;99.90;;;;;;5055553;28;20048;-26
2022/07/27 08:13:49;;;;;;;4.32;1.10;;;16.00;14.50;;;;;;5056295;28;20413;-27
2022/07/27 08:16:15;;;;;;;2.83;0.90;;;16.10;1.00;;;;;;5052488;28;20098;-26
2022/07/27 08:18:42;;;;;;;5.05;1.02;;;16.30;1.00;;;;;;5055769;28;20402;-27
2022/07/27 08:21:08;;;;;;;1.75;0.80;;;16.50;99.90;;;;;;5055928;28;20045;-26
2022/07/27 08:23:34;;;;;;;4.25;0.95;;;16.70;99.90;;;;;;5055467;28;20052;-26
2022/07/27 08:26:00;;;;;;;3.75;0.80;;;16.90;99.90;;;;;;5054490;28;20099;-26
2022/07/27 08:28:25;;;;;;;5.40;0.90;;;17.20;99.90;;;;;;5055521;28;20053;-26
2022/07/27 08:30:51;;;;;;;5.72;0.85;;;17.40;1.00;;;;;;5055830;28;20045;-26
2022/07/27 08:33:17;;;;;;;5.53;0.93;;;17.60;1.00;;;;;;5055459;28;20132;-27
2022/07/27 08:35:44;;;;;;;4.35;0.93;;;18.00;1.00;;;;;;5055400;28;20041;-26
2022/07/27 08:38:10;;;;;;;5.22;0.90;;;18.20;99.90;;;;;;5051248;28;20060;-27
2022/07/27 08:40:37;;;;;;;8.70;1.10;;;18.30;99.90;;;;;;5055795;28;20049;-27
2022/07/27 08:43:04;;;;;;;2.88;1.00;;;18.50;99.90;;;;;;5055273;28;20045;-26
2022/07/27 08:45:30;;;;;;;3.50;0.65;;;19.10;99.90;;;;;;5055472;28;20485;-27
2022/07/27 08:47:56;;;;;;;6.18;0.82;;;19.50;1.00;;;;;;5053074;28;20036;-27
2022/07/27 08:50:23;;;;;;;5.43;1.38;;;19.70;11.50;;;;;;5055679;28;20041;-27
2022/07/27 08:53:07;;;;;;;4.13;1.00;;;19.40;99.90;;;;;;5055118;28;20053;-27
2022/07/27 08:55:38;;;;;;;2.33;0.70;;;19.40;99.90;;;;;;5055075;28;20052;-27
2022/07/27 08:58:05;;;;;;;3.72;0.52;;;18.80;1.00;;;;;;5035959;28;20047;-27
2022/07/27 09:00:32;;;;;;;3.15;0.90;;;18.20;99.90;;;;;;5054908;28;20128;-28
2022/07/27 09:02:58;;;;;;;3.17;0.50;;;18.40;99.90;;;;;;5021753;28;20067;-27
2022/07/27 09:05:24;;;;;;;3.40;0.70;;;18.50;10.40;;;;;;5054840;28;20044;-27
2022/07/27 09:07:50;;;;;;;7.38;0.75;;;18.40;1.00;;;;;;5036606;28;20049;-27
2022/07/27 09:10:30;;;;;;;3.78;0.82;;;18.40;99.90;;;;;;5053719;28;20045;-27
2022/07/27 09:12:56;;;;;;;5.05;0.70;;;18.60;99.90;;;;;;5053565;28;20102;-27
2022/07/27 09:15:22;;;;;;;3.60;1.40;;;18.60;99.90;;;;;;5053475;28;20465;-27
2022/07/27 09:17:48;;;;;;;2.35;0.93;;;18.80;99.90;;;;;;5057544;28;20119;-27
2022/07/27 09:20:16;;;;;;;5.47;0.73;;;19.10;99.90;;;;;;5054607;28;20052;-27
2022/07/27 09:22:52;;;;;;;3.10;0.77;;;19.50;99.90;;;;;;5052218;28;20102;-28
2022/07/27 09:25:29;;;;;;;4.18;0.80;;;19.90;99.90;;;;;;5050307;28;20049;-28
2022/07/27 09:27:57;;;;;;;5.65;0.52;;;20.70;1.00;;;;;;5054334;28;20044;-28
2022/07/27 09:30:24;;;;;;;2.70;0.43;;;21.10;99.90;;;;;;5036778;28;20041;-27
2022/07/27 09:32:56;;;;;;;4.68;0.80;;;20.30;1.00;;;;;;5051827;28;20060;-28
2022/07/27 09:35:33;;;;;;;8.10;1.30;;;19.70;89.60;;;;;;5049093;28;20044;-28
2022/07/27 09:38:17;;;;;;;4.03;0.80;;;19.50;99.90;;;;;;5054138;28;20041;-28
2022/07/27 09:40:44;;;;;;;4.15;0.90;;;19.90;99.90;;;;;;5051046;28;20049;-27
2022/07/27 09:43:12;;;;;;;7.47;1.40;;;19.90;99.90;;;;;;5056242;28;20154;-28
2022/07/27 09:45:42;;;;;;;4.55;1.00;;;19.40;99.90;;;;;;5037365;28;20044;-27
2022/07/27 09:48:17;;;;;;;4.10;0.73;;;19.10;99.90;;;;;;5053545;28;20076;-27
2022/07/27 09:50:58;;;;;;;3.40;0.50;;;19.60;99.90;;;;;;5054132;28;20044;-28
2022/07/27 09:53:27;;;;;;;4.78;0.63;;;20.20;99.90;;;;;;5051584;28;20091;-27
2022/07/27 09:55:56;;;;;;;6.10;0.73;;;20.50;99.90;;;;;;5046195;28;20483;-28
2022/07/27 09:58:42;;;;;;;6.10;1.30;;;21.20;99.90;;;;;;5033713;28;20041;-28
2022/07/27 10:01:20;;;;;;;8.73;1.45;;;21.40;58.60;;;;;;5032781;28;20042;-28
2022/07/27 10:03:51;;;;;;;7.18;2.00;;;21.10;36.40;;;;;;5043747;28;20060;-28
2022/07/27 10:06:17;;;;;;;3.65;0.90;;;20.10;76.90;;;;;;5053814;28;20537;-28
2022/07/27 10:08:45;;;;;;;7.90;1.35;;;19.40;99.90;;;;;;5053430;28;20525;-27
2022/07/27 10:11:14;;;;;;;4.03;0.70;;;18.90;99.90;;;;;;5054828;28;20052;-27
2022/07/27 10:13:40;;;;;;;5.10;0.38;;;18.50;99.90;;;;;;5052598;28;20048;-27
2022/07/27 10:16:10;;;;;;;5.43;0.50;;;19.10;99.90;;;;;;5053335;28;20491;-28
2022/07/27 10:19:04;;;;;;;3.65;0.55;;;20.00;81.30;;;;;;5053593;28;20049;-28
2022/07/27 10:21:36;;;;;;;6.07;0.90;;;20.50;1.00;;;;;;5052435;28;20119;-27
2022/07/27 10:24:24;;;;;;;3.73;0.60;;;20.40;1.00;;;;;;5051481;28;20040;-27
2022/07/27 10:26:50;;;;;;;4.00;0.60;;;20.90;1.00;;;;;;5053746;28;20041;-28
2022/07/27 10:29:18;;;;;;;3.40;0.57;;;21.40;1.00;;;;;;5053769;28;20513;-27
2022/07/27 10:31:52;;;;;;;6.05;0.70;;;21.80;1.00;;;;;;5036098;28;20128;-27
2022/07/27 10:34:42;;;;;;;4.25;0.40;;;22.20;1.00;;;;;;5052113;28;20166;-27
2022/07/27 10:37:26;;;;;;;4.65;1.02;;;22.80;1.00;;;;;;5053395;28;20045;-28
2022/07/27 10:42:48;;;;;;;4.43;0.75;;;22.00;1.00;;;;;;5043566;28;20056;-28
2022/07/27 10:45:16;;;;;;;1.40;0.38;;;22.10;11.80;;;;;;5056856;28;20049;-28
2022/07/27 10:47:47;;;;;;;0.88;0.22;;;22.60;1.00;;;;;;5056263;28;20055;-28
2022/07/27 10:50:16;;;;;;;3.05;0.40;;;22.50;1.00;;;;;;5056336;28;20092;-28
2022/07/27 10:52:41;;;;;;;3.83;0.60;;;23.30;1.00;;;;;;5056311;28;20052;-28
2022/07/27 10:55:27;;;;;;;4.38;0.68;;;23.30;1.00;;;;;;5056448;28;20071;-28
2022/07/27 10:57:54;;;;;;;3.17;0.82;;;22.80;1.00;;;;;;5057252;28;20048;-28
2022/07/27 11:00:20;;;;;;;3.30;0.75;;;21.60;1.00;;;;;;5057139;28;20037;-27
2022/07/27 11:02:45;;;;;;;2.85;0.60;;;21.30;1.00;;;;;;5055766;28;20044;-28
2022/07/27 11:05:11;;;;;;;2.13;0.60;;;21.20;1.00;;;;;;5056151;28;20045;-28
2022/07/27 11:07:43;;;;;;;4.32;0.65;;;21.30;1.00;;;;;;5057072;28;20523;-28
2022/07/27 11:10:09;;;;;;;2.85;0.63;;;22.40;1.00;;;;;;5053380;28;20048;-27
2022/07/27 11:12:36;;;;;;;5.40;0.80;;;22.60;1.00;;;;;;5057005;28;20483;-28
2022/07/27 11:15:03;;;;;;;4.05;0.47;;;22.20;1.00;;;;;;5048389;28;20099;-28
2022/07/27 11:17:29;;;;;;;6.30;0.45;;;21.80;1.00;;;;;;5056325;28;20059;-27
2022/07/27 11:19:59;;;;;;;2.28;0.40;;;22.30;21.20;;;;;;5051169;28;20151;-29
2022/07/27 11:22:31;;;;;;;3.40;0.60;;;22.20;1.00;;;;;;5039472;28;20065;-27
2022/07/27 11:24:56;;;;;;;1.73;0.30;;;22.70;1.00;;;;;;5053569;28;20491;-28
2022/07/27 11:27:22;;;;;;;5.22;0.60;;;22.90;1.00;;;;;;5070714;28;20290;-28
2022/07/27 11:29:50;;;;;;;3.85;0.40;;;23.00;1.00;;;;;;5055009;28;20048;-29
2022/07/27 11:32:19;;;;;;;4.93;0.95;;;22.20;1.00;;;;;;5049850;28;20048;-27
2022/07/27 11:34:45;;;;;;;6.05;0.77;;;21.30;1.00;;;;;;5038864;28;20506;-28
2022/07/27 11:37:19;;;;;;;2.25;0.47;;;20.90;1.00;;;;;;5046486;28;20116;-28
2022/07/27 11:39:46;;;;;;;3.70;0.68;;;20.60;1.00;;;;;;5045020;28;20119;-27
2022/07/27 11:42:14;;;;;;;5.60;0.50;;;20.10;6.90;;;;;;5054018;28;20045;-28
2022/07/27 11:44:45;;;;;;;2.55;0.45;;;20.20;99.90;;;;;;5036319;28;20041;-28
2022/07/27 11:47:16;;;;;;;3.05;0.47;;;20.60;92.10;;;;;;5054880;28;20056;-28
2022/07/27 11:49:42;;;;;;;2.80;0.65;;;21.80;83.20;;;;;;5039019;28;20514;-28
2022/07/27 11:52:08;;;;;;;4.10;0.60;;;22.70;30.50;;;;;;5052183;28;20041;-28
2022/07/27 11:54:36;;;;;;;2.85;0.85;;;23.80;1.00;;;;;;5037901;28;20052;-28
2022/07/27 11:57:11;;;;;;;3.22;0.70;;;23.80;21.40;;;;;;5018250;28;20045;-28
2022/07/27 11:59:41;;;;;;;3.05;0.60;;;22.40;1.00;;;;;;5056158;28;20080;-28
2022/07/27 12:02:09;;;;;;;5.32;1.10;;;22.00;21.60;;;;;;5053555;28;20044;-27
2022/07/27 12:04:40;;;;;;;3.20;0.47;;;22.30;66.40;;;;;;5061910;28;20048;-28
2022/07/27 12:07:18;;;;;;;4.28;0.65;;;22.40;29.70;;;;;;5058461;28;20414;-28
2022/07/27 12:09:53;;;;;;;9.77;1.10;;;22.30;21.40;;;;;;5046990;28;20438;-29
2022/07/27 12:12:27;;;;;;;6.13;0.50;;;21.60;26.60;;;;;;5053168;28;20112;-27
2022/07/27 12:15:12;;;;;;;3.20;0.60;;;21.40;15.40;;;;;;5043928;28;20076;-28
2022/07/27 12:17:39;;;;;;;4.43;0.80;;;20.70;67.70;;;;;;5054559;28;20056;-28
2022/07/27 12:20:09;;;;;;;4.25;0.60;;;20.20;99.90;;;;;;5049036;28;20408;-27
2022/07/27 12:22:42;;;;;;;5.43;0.60;;;20.00;99.90;;;;;;5036028;28;20136;-28
2022/07/27 12:25:17;;;;;;;;;;;20.10;96.30;;;;;;5055854;28;20080;-28
2022/07/27 12:28:01;;;;;;;3.83;0.50;;;19.70;99.90;;;;;;5038526;28;20413;-28
2022/07/27 12:30:28;;;;;;;3.65;0.77;;;19.70;99.90;;;;;;5055572;28;20084;-28
2022/07/27 12:32:54;;;;;;;4.45;1.10;;;19.90;97.10;;;;;;5055485;28;20049;-28
2022/07/27 12:35:29;;;;;;;2.80;0.55;;;20.10;55.00;;;;;;5055683;28;20056;-27
2022/07/27 12:38:04;;;;;;;4.00;0.70;;;20.40;86.10;;;;;;5054943;28;20041;-28
2022/07/27 12:40:31;;;;;;;2.13;0.52;;;20.60;81.00;;;;;;5055852;28;20080;-27
2022/07/27 12:43:02;;;;;;;3.72;0.60;;;20.60;99.90;;;;;;5055294;28;20049;-29
2022/07/27 12:45:31;;;;;;;3.38;0.77;;;20.30;99.90;;;;;;5055814;28;20052;-27
2022/07/27 12:48:08;;;;;;;5.88;0.70;;;20.80;99.90;;;;;;5055758;28;20110;-28
2022/07/27 12:50:34;;;;;;;4.20;0.70;;;20.90;99.90;;;;;;5055156;28;20083;-28
2022/07/27 12:53:00;;;;;;;3.58;0.98;;;20.90;55.50;;;;;;5055101;28;20475;-28
2022/07/27 12:55:26;;;;;;;4.60;0.80;;;21.00;19.90;;;;;;5049765;28;20098;-27